createdAt,value
2024-02-21T00:01:16.407Z,27.20
2024-02-21T00:03:45.043Z,30.50
2024-02-21T00:06:13.555Z,29.60
2024-02-21T00:08:42.262Z,26.05
2024-02-21T00:11:10.986Z,24.35
2024-02-21T00:13:39.552Z,27.88
2024-02-21T00:16:09.665Z,27.33
2024-02-21T00:18:38.174Z,24.60
2024-02-21T00:21:06.732Z,20.83
2024-02-21T00:23:35.336Z,21.85
2024-02-21T00:26:03.986Z,23.30
2024-02-21T00:28:32.558Z,24.85
2024-02-21T00:31:01.089Z,21.92
2024-02-21T00:33:31.039Z,25.52
2024-02-21T00:35:59.699Z,24.63
2024-02-21T00:38:28.350Z,21.38
2024-02-21T00:40:56.897Z,24.17
2024-02-21T00:43:25.847Z,19.38
2024-02-21T00:45:54.435Z,23.63
2024-02-21T00:48:23.062Z,20.63
2024-02-21T00:50:53.042Z,23.63
2024-02-21T00:53:21.618Z,20.88
2024-02-21T00:55:50.170Z,26.60
2024-02-21T00:58:18.720Z,21.33
2024-02-21T01:00:47.421Z,19.23
2024-02-21T01:03:16.339Z,18.25
2024-02-21T01:05:44.850Z,16.95
2024-02-21T01:08:14.751Z,25.05
2024-02-21T01:10:43.271Z,23.27
2024-02-21T01:13:11.782Z,26.50
2024-02-21T01:15:40.409Z,21.75
2024-02-21T01:18:09.038Z,29.48
2024-02-21T01:20:37.579Z,21.25
2024-02-21T01:23:06.145Z,23.13
2024-02-21T01:25:36.110Z,21.35
2024-02-21T01:28:05.049Z,20.50
2024-02-21T01:30:33.809Z,25.10
2024-02-21T01:33:02.391Z,23.88
2024-02-21T01:35:31.023Z,27.40
2024-02-21T01:37:59.604Z,20.42
2024-02-21T01:40:28.232Z,24.63
2024-02-21T01:42:58.326Z,21.27
2024-02-21T01:45:26.862Z,23.23
2024-02-21T01:47:55.412Z,22.92
2024-02-21T01:50:25.637Z,20.70
2024-02-21T01:52:54.473Z,20.40
2024-02-21T01:55:23.125Z,17.55
2024-02-21T01:57:51.732Z,20.98
2024-02-21T02:00:22.616Z,20.38
2024-02-21T02:02:52.254Z,22.98
2024-02-21T02:05:22.295Z,23.98
2024-02-21T02:07:50.940Z,19.00
2024-02-21T02:10:19.639Z,19.48
2024-02-21T02:12:48.161Z,19.65
2024-02-21T02:15:16.668Z,21.45
2024-02-21T02:17:46.605Z,22.83
2024-02-21T02:20:15.821Z,24.15
2024-02-21T02:22:46.672Z,18.60
2024-02-21T02:25:16.708Z,17.55
2024-02-21T02:27:46.381Z,18.30
2024-02-21T02:30:15.268Z,19.70
2024-02-21T02:32:47.056Z,22.98
2024-02-21T02:35:15.999Z,22.08
2024-02-21T02:37:50.662Z,19.90
2024-02-21T02:40:20.954Z,16.08
2024-02-21T02:42:50.140Z,29.63
2024-02-21T02:45:18.873Z,25.42
2024-02-21T02:47:48.261Z,21.77
2024-02-21T02:50:17.037Z,24.75
2024-02-21T02:52:45.553Z,21.90
2024-02-21T02:55:14.487Z,20.10
2024-02-21T02:57:44.661Z,21.05
2024-02-21T03:00:14.419Z,25.67
2024-02-21T03:02:44.546Z,17.45
2024-02-21T03:05:16.084Z,19.52
2024-02-21T03:07:45.544Z,25.63
2024-02-21T03:10:15.349Z,20.50
2024-02-21T03:12:45.421Z,24.17
2024-02-21T03:15:14.950Z,19.95
2024-02-21T03:17:43.871Z,19.50
2024-02-21T03:20:13.877Z,18.75
2024-02-21T03:22:43.044Z,22.67
2024-02-21T03:25:11.883Z,20.15
2024-02-21T03:27:40.517Z,24.13
2024-02-21T03:30:11.524Z,23.90
2024-02-21T03:32:40.419Z,21.70
2024-02-21T03:35:09.490Z,21.27
2024-02-21T03:37:38.075Z,30.33
2024-02-21T03:40:10.220Z,32.25
2024-02-21T03:42:39.288Z,28.15
2024-02-21T03:45:08.929Z,28.15
2024-02-21T03:47:39.417Z,27.80
2024-02-21T03:50:09.060Z,30.52
2024-02-21T03:52:37.715Z,27.60
2024-02-21T03:55:06.707Z,25.75
2024-02-21T03:57:35.228Z,23.63
2024-02-21T04:00:04.770Z,27.17
2024-02-21T04:02:33.334Z,26.55
2024-02-21T04:05:03.266Z,25.58
2024-02-21T04:07:31.938Z,26.42
2024-02-21T04:10:09.127Z,24.13
2024-02-21T04:12:39.400Z,22.63
2024-02-21T04:15:08.564Z,30.98
2024-02-21T04:17:37.075Z,21.17
2024-02-21T04:20:09.938Z,25.42
2024-02-21T04:22:38.734Z,24.83
2024-02-21T04:25:08.321Z,24.02
2024-02-21T04:27:36.803Z,19.90
2024-02-21T04:30:06.087Z,25.73
2024-02-21T04:32:35.123Z,26.80
2024-02-21T04:35:03.850Z,25.67
2024-02-21T04:37:33.805Z,25.35
2024-02-21T04:40:03.124Z,19.20
2024-02-21T04:42:31.660Z,25.98
2024-02-21T04:45:00.243Z,22.55
2024-02-21T04:47:29.592Z,30.13
2024-02-21T04:49:58.119Z,20.55
2024-02-21T04:52:26.610Z,25.60
2024-02-21T04:54:56.929Z,23.40
2024-02-21T04:57:26.400Z,26.60
2024-02-21T04:59:54.874Z,25.02
2024-02-21T05:02:25.416Z,22.00
2024-02-21T05:04:54.974Z,20.85
2024-02-21T05:07:23.901Z,27.88
2024-02-21T05:09:52.362Z,23.45
2024-02-21T05:12:22.262Z,21.65
2024-02-21T05:14:50.783Z,23.48
2024-02-21T05:17:19.453Z,23.70
2024-02-21T05:19:48.077Z,20.05
2024-02-21T05:22:16.636Z,32.63
2024-02-21T05:24:45.192Z,28.67
2024-02-21T05:27:13.683Z,22.85
2024-02-21T05:29:43.578Z,32.47
2024-02-21T05:32:12.158Z,27.55
2024-02-21T05:34:41.045Z,29.92
2024-02-21T05:37:09.893Z,27.42
2024-02-21T05:39:38.350Z,25.77
2024-02-21T05:42:07.194Z,27.75
2024-02-21T05:44:35.713Z,24.67
2024-02-21T05:47:06.331Z,27.33
2024-02-21T05:49:34.876Z,27.55
2024-02-21T05:52:03.539Z,25.45
2024-02-21T05:54:32.013Z,20.38
2024-02-21T05:57:00.554Z,29.85
2024-02-21T05:59:29.061Z,22.35
2024-02-21T06:01:59.050Z,19.50
2024-02-21T06:04:29.222Z,24.48
2024-02-21T06:06:57.732Z,22.25
2024-02-21T06:09:26.231Z,25.58
2024-02-21T06:11:54.787Z,21.35
2024-02-21T06:14:23.669Z,27.50
2024-02-21T06:16:52.214Z,22.42
2024-02-21T06:19:20.908Z,33.00
2024-02-21T06:21:50.905Z,25.30
2024-02-21T06:24:19.367Z,25.75
2024-02-21T06:26:47.866Z,21.83
2024-02-21T06:29:16.402Z,22.42
2024-02-21T06:31:44.945Z,29.90
2024-02-21T06:34:13.595Z,26.65
2024-02-21T06:36:42.154Z,31.02
2024-02-21T06:39:12.568Z,27.83
2024-02-21T06:41:41.613Z,24.83
2024-02-21T06:44:10.182Z,21.65
2024-02-21T06:46:38.743Z,22.10
2024-02-21T06:49:07.388Z,23.20
2024-02-21T06:51:36.289Z,22.83
2024-02-21T06:54:04.814Z,29.60
2024-02-21T06:56:34.749Z,30.20
2024-02-21T06:59:04.508Z,26.88
2024-02-21T07:01:33.237Z,23.08
2024-02-21T07:04:01.988Z,26.05
2024-02-21T07:06:33.860Z,23.48
2024-02-21T07:09:03.708Z,26.17
2024-02-21T07:11:32.337Z,26.00
2024-02-21T07:14:02.336Z,24.45
2024-02-21T07:16:30.937Z,22.35
2024-02-21T07:18:59.570Z,25.80
2024-02-21T07:21:28.087Z,26.33
2024-02-21T07:23:56.519Z,24.85
2024-02-21T07:26:25.016Z,23.85
2024-02-21T07:28:53.568Z,26.83
2024-02-21T07:31:23.493Z,22.65
2024-02-21T07:33:52.064Z,27.08
2024-02-21T07:36:30.421Z,25.67
2024-02-21T07:38:59.016Z,24.13
2024-02-21T07:41:27.662Z,20.10
2024-02-21T07:43:56.220Z,21.48
2024-02-21T07:46:26.258Z,24.77
2024-02-21T07:48:54.842Z,25.88
2024-02-21T07:51:23.317Z,26.75
2024-02-21T07:53:52.003Z,26.77
2024-02-21T07:56:20.467Z,24.67
2024-02-21T07:58:49.003Z,22.13
2024-02-21T08:01:20.844Z,22.92
2024-02-21T08:03:51.300Z,18.13
2024-02-21T08:06:19.865Z,17.90
2024-02-21T08:08:48.392Z,20.60
2024-02-21T08:11:17.095Z,18.85
2024-02-21T08:13:45.729Z,21.80
2024-02-21T08:16:14.265Z,17.08
2024-02-21T08:18:45.252Z,21.90
2024-02-21T08:21:15.301Z,22.13
2024-02-21T08:23:43.746Z,17.33
2024-02-21T08:26:12.819Z,20.83
2024-02-21T08:28:41.424Z,23.92
2024-02-21T08:31:09.910Z,25.42
2024-02-21T08:33:38.523Z,22.08
2024-02-21T08:36:09.034Z,26.13
2024-02-21T08:38:38.869Z,21.50
2024-02-21T08:41:07.719Z,26.52
2024-02-21T08:43:37.126Z,21.23
2024-02-21T08:46:07.407Z,22.42
2024-02-21T08:48:36.735Z,21.45
2024-02-21T08:51:06.687Z,24.58
2024-02-21T08:53:35.248Z,21.20
2024-02-21T08:56:05.761Z,24.85
2024-02-21T08:58:34.405Z,21.85
2024-02-21T09:01:02.970Z,28.58
2024-02-21T09:03:32.852Z,25.17
2024-02-21T09:06:01.768Z,24.40
2024-02-21T09:08:30.572Z,28.10
2024-02-21T09:10:59.148Z,26.60
2024-02-21T09:13:29.147Z,30.27
2024-02-21T09:15:57.864Z,26.40
2024-02-21T09:18:26.483Z,25.63
2024-02-21T09:20:55.007Z,25.80
2024-02-21T09:23:26.451Z,26.45
2024-02-21T09:25:56.561Z,24.83
2024-02-21T09:28:25.212Z,24.02
2024-02-21T09:30:55.192Z,24.33
2024-02-21T09:33:30.795Z,25.00
2024-02-21T09:36:02.230Z,27.13
2024-02-21T09:38:30.760Z,21.20
2024-02-21T09:41:02.845Z,24.38
2024-02-21T09:43:31.515Z,25.67
2024-02-21T09:46:02.436Z,22.50
2024-02-21T09:48:45.963Z,26.30
2024-02-21T09:51:16.564Z,25.83
2024-02-21T09:53:55.035Z,24.17
2024-02-21T09:56:30.973Z,23.15
2024-02-21T09:59:00.868Z,28.98
2024-02-21T10:01:34.924Z,24.33
2024-02-21T10:04:06.120Z,30.50
2024-02-21T10:06:35.058Z,22.67
2024-02-21T10:09:03.725Z,21.98
2024-02-21T10:11:32.569Z,25.85
2024-02-21T10:14:07.734Z,21.25
2024-02-21T10:16:38.832Z,24.05
2024-02-21T10:19:07.559Z,22.65
2024-02-21T10:21:36.173Z,23.92
2024-02-21T10:24:05.268Z,17.42
2024-02-21T10:26:33.733Z,24.95
2024-02-21T10:29:03.873Z,22.42
2024-02-21T10:31:32.466Z,23.10
2024-02-21T10:34:04.844Z,23.80
2024-02-21T10:36:33.650Z,22.98
2024-02-21T10:39:02.187Z,25.63
2024-02-21T10:41:32.304Z,18.73
2024-02-21T10:44:02.622Z,25.80
2024-02-21T10:46:33.468Z,25.85
2024-02-21T10:49:12.469Z,27.08
2024-02-21T10:51:45.571Z,19.55
2024-02-21T10:54:32.404Z,26.98
2024-02-21T10:57:04.920Z,22.13
2024-02-21T10:59:34.615Z,27.67
2024-02-21T11:02:04.175Z,31.80
2024-02-21T11:04:37.577Z,32.92
2024-02-21T11:07:10.944Z,27.57
2024-02-21T11:09:40.291Z,22.48
2024-02-21T11:12:10.019Z,23.25
2024-02-21T11:14:42.917Z,21.55
2024-02-21T11:17:18.677Z,22.75
2024-02-21T11:19:49.434Z,22.33
2024-02-21T11:22:19.227Z,21.00
2024-02-21T11:24:48.507Z,18.92
2024-02-21T11:27:18.067Z,24.42
2024-02-21T11:29:47.115Z,18.65
2024-02-21T11:32:17.472Z,17.85
2024-02-21T11:34:57.476Z,20.83
2024-02-21T11:37:28.768Z,19.63
2024-02-21T11:39:57.494Z,19.92
2024-02-21T11:42:27.512Z,17.27
2024-02-21T11:44:58.122Z,18.50
2024-02-21T11:47:27.513Z,14.55
2024-02-21T11:49:57.589Z,18.70
2024-02-21T11:52:29.198Z,16.95
2024-02-21T11:55:05.753Z,17.05
2024-02-21T11:57:36.617Z,17.83
2024-02-21T12:00:15.228Z,20.58
2024-02-21T12:02:44.197Z,17.05
2024-02-21T12:05:14.449Z,19.90
2024-02-21T12:07:43.528Z,14.90
2024-02-21T12:10:12.953Z,18.50
2024-02-21T12:12:42.102Z,15.75
2024-02-21T12:15:10.964Z,14.30
2024-02-21T12:17:40.103Z,15.75
2024-02-21T12:20:10.644Z,16.05
2024-02-21T12:22:41.434Z,16.50
2024-02-21T12:25:19.123Z,19.27
2024-02-21T12:27:47.739Z,14.07
2024-02-21T12:30:16.591Z,16.25
2024-02-21T12:32:45.284Z,17.95
2024-02-21T12:35:14.385Z,20.00
2024-02-21T12:37:44.414Z,14.77
2024-02-21T12:40:14.721Z,13.85
2024-02-21T12:42:44.137Z,14.05
2024-02-21T12:45:13.148Z,14.48
2024-02-21T12:47:41.925Z,14.20
2024-02-21T12:50:11.213Z,25.60
2024-02-21T12:52:39.987Z,17.73
2024-02-21T12:55:12.334Z,13.02
2024-02-21T12:57:41.173Z,15.65
2024-02-21T13:00:12.554Z,16.48
2024-02-21T13:02:41.493Z,13.45
2024-02-21T13:05:10.598Z,12.23
2024-02-21T13:07:39.385Z,12.60
2024-02-21T13:10:10.569Z,12.68
2024-02-21T13:12:39.365Z,12.60
2024-02-21T13:15:11.075Z,14.38
2024-02-21T13:17:39.709Z,17.73
2024-02-21T13:20:09.672Z,19.33
2024-02-21T13:22:38.442Z,17.85
2024-02-21T13:25:08.506Z,15.38
2024-02-21T13:27:38.601Z,13.82
2024-02-21T13:30:10.069Z,13.98
2024-02-21T13:32:39.207Z,19.35
2024-02-21T13:35:08.576Z,17.50
2024-02-21T13:37:38.274Z,14.23
2024-02-21T13:40:08.685Z,17.55
2024-02-21T13:42:39.016Z,14.50
2024-02-21T13:45:08.537Z,17.15
2024-02-21T13:47:39.756Z,21.13
2024-02-21T13:50:12.100Z,18.60
2024-02-21T13:52:40.715Z,17.58
2024-02-21T13:55:10.787Z,15.57
2024-02-21T13:57:40.870Z,18.20
2024-02-21T14:00:11.989Z,13.05
2024-02-21T14:02:40.909Z,17.52
2024-02-21T14:05:10.319Z,16.30
2024-02-21T14:07:40.787Z,15.40
2024-02-21T14:10:11.757Z,16.95
2024-02-21T14:12:41.792Z,17.98
2024-02-21T14:15:11.207Z,12.70
2024-02-21T14:17:40.391Z,14.95
2024-02-21T14:20:10.961Z,18.25
2024-02-21T14:22:40.214Z,14.25
2024-02-21T14:25:09.649Z,13.82
2024-02-21T14:27:38.225Z,12.98
2024-02-21T14:30:12.243Z,19.75
2024-02-21T14:32:45.794Z,15.32
2024-02-21T14:35:14.835Z,12.25
2024-02-21T14:37:43.515Z,14.57
2024-02-21T14:40:13.444Z,16.60
2024-02-21T14:42:42.021Z,13.98
2024-02-21T14:45:12.760Z,15.32
2024-02-21T14:47:41.486Z,16.08
2024-02-21T14:50:10.727Z,13.35
2024-02-21T14:52:39.548Z,15.07
2024-02-21T14:55:09.512Z,14.98
2024-02-21T14:57:39.177Z,12.07
2024-02-21T15:00:10.923Z,13.32
2024-02-21T15:02:41.187Z,11.95
2024-02-21T15:05:10.470Z,16.20
2024-02-21T15:07:39.099Z,13.90
2024-02-21T15:10:09.097Z,17.88
2024-02-21T15:12:37.696Z,13.20
2024-02-21T15:15:07.218Z,16.73
2024-02-21T15:17:35.886Z,14.45
2024-02-21T15:20:08.855Z,13.85
2024-02-21T15:22:37.938Z,14.75
2024-02-21T15:25:07.461Z,16.83
2024-02-21T15:27:40.339Z,14.95
2024-02-21T15:30:10.498Z,16.48
2024-02-21T15:32:39.317Z,14.38
2024-02-21T15:35:09.597Z,14.50
2024-02-21T15:37:38.497Z,16.63
2024-02-21T15:40:09.419Z,18.23
2024-02-21T15:42:39.282Z,14.50
2024-02-21T15:45:09.309Z,17.38
2024-02-21T15:47:38.063Z,19.88
2024-02-21T15:50:08.632Z,17.27
2024-02-21T15:52:38.773Z,16.25
2024-02-21T15:55:11.999Z,14.73
2024-02-21T15:57:40.999Z,14.85
2024-02-21T16:00:13.349Z,15.15
2024-02-21T16:02:43.196Z,15.60
2024-02-21T16:05:12.718Z,18.00
2024-02-21T16:07:43.933Z,12.95
2024-02-21T16:10:12.522Z,20.98
2024-02-21T16:12:42.446Z,20.02
2024-02-21T16:15:12.843Z,16.50
2024-02-21T16:17:41.786Z,20.10
2024-02-21T16:20:11.738Z,26.65
2024-02-21T16:22:40.928Z,18.15
2024-02-21T16:25:11.420Z,18.15
2024-02-21T16:27:41.927Z,22.10
2024-02-21T16:30:11.005Z,19.70
2024-02-21T16:32:43.928Z,18.15
2024-02-21T16:35:13.276Z,16.45
2024-02-21T16:37:42.234Z,17.80
2024-02-21T16:40:13.553Z,15.57
2024-02-21T16:42:42.081Z,18.52
2024-02-21T16:45:11.177Z,17.45
2024-02-21T16:47:39.747Z,19.17
2024-02-21T16:50:09.354Z,17.67
2024-02-21T16:52:38.175Z,17.75
2024-02-21T16:55:08.686Z,17.85
2024-02-21T16:57:39.822Z,17.13
2024-02-21T17:00:12.744Z,20.65
2024-02-21T17:02:48.437Z,19.73
2024-02-21T17:05:26.336Z,26.60
2024-02-21T17:07:55.738Z,16.23
2024-02-21T17:10:24.716Z,15.60
2024-02-21T17:12:55.084Z,15.45
2024-02-21T17:15:23.661Z,14.27
2024-02-21T17:17:52.367Z,18.35
2024-02-21T17:20:21.071Z,15.85
2024-02-21T17:22:49.651Z,16.40
2024-02-21T17:25:18.434Z,21.83
2024-02-21T17:27:47.010Z,17.23
2024-02-21T17:30:17.254Z,21.80
2024-02-21T17:32:46.311Z,18.35
2024-02-21T17:35:16.531Z,15.70
2024-02-21T17:37:45.168Z,20.33
2024-02-21T17:40:14.598Z,17.58
2024-02-21T17:42:43.086Z,19.92
2024-02-21T17:45:12.024Z,22.48
2024-02-21T17:47:41.976Z,29.65
2024-02-21T17:50:10.835Z,27.52
2024-02-21T17:52:39.506Z,16.48
2024-02-21T17:55:08.845Z,17.70
2024-02-21T17:57:37.455Z,19.95
2024-02-21T18:00:08.478Z,17.23
2024-02-21T18:02:37.552Z,23.33
2024-02-21T18:05:08.137Z,24.40
2024-02-21T18:07:37.520Z,16.73
2024-02-21T18:10:06.695Z,27.70
2024-02-21T18:12:35.507Z,22.20
2024-02-21T18:15:04.164Z,21.42
2024-02-21T18:17:34.219Z,22.02
2024-02-21T18:20:05.293Z,20.05
2024-02-21T18:22:35.907Z,18.05
2024-02-21T18:25:04.846Z,19.85
2024-02-21T18:27:33.616Z,21.65
2024-02-21T18:30:03.430Z,25.25
2024-02-21T18:32:32.292Z,22.63
2024-02-21T18:35:01.850Z,22.90
2024-02-21T18:37:31.148Z,22.60
2024-02-21T18:40:01.144Z,15.40
2024-02-21T18:42:29.657Z,19.98
2024-02-21T18:44:58.234Z,21.13
2024-02-21T18:47:26.840Z,16.00
2024-02-21T18:49:55.477Z,18.63
2024-02-21T18:52:24.098Z,24.40
2024-02-21T18:54:52.656Z,29.35
2024-02-21T18:57:22.583Z,26.00
2024-02-21T18:59:51.081Z,19.80
2024-02-21T19:02:19.679Z,20.83
2024-02-21T19:04:48.428Z,20.85
2024-02-21T19:07:17.617Z,23.95
2024-02-21T19:09:46.161Z,17.75
2024-02-21T19:12:15.064Z,20.02
2024-02-21T19:14:44.968Z,27.73
2024-02-21T19:17:13.492Z,18.63
2024-02-21T19:19:43.524Z,26.05
2024-02-21T19:22:12.134Z,19.73
2024-02-21T19:24:41.233Z,16.55
2024-02-21T19:27:10.057Z,20.80
2024-02-21T19:29:39.874Z,18.75
2024-02-21T19:32:09.876Z,25.70
2024-02-21T19:34:41.458Z,25.17
2024-02-21T19:37:11.162Z,21.83
2024-02-21T19:39:39.690Z,18.52
2024-02-21T19:42:08.362Z,16.02
2024-02-21T19:44:36.885Z,14.88
2024-02-21T19:47:06.459Z,14.07
2024-02-21T19:49:36.405Z,13.88
2024-02-21T19:52:05.539Z,16.50
2024-02-21T19:54:34.012Z,16.60
2024-02-21T19:57:03.805Z,15.98
2024-02-21T19:59:34.103Z,16.73
2024-02-21T20:02:02.754Z,18.08
2024-02-21T20:04:31.494Z,22.60
2024-02-21T20:07:01.615Z,16.45
2024-02-21T20:09:30.092Z,17.50
2024-02-21T20:11:59.894Z,19.48
2024-02-21T20:14:28.531Z,16.98
2024-02-21T20:16:57.140Z,17.55
2024-02-21T20:19:25.875Z,34.38
2024-02-21T20:21:54.899Z,24.35
2024-02-21T20:24:35.126Z,23.00
2024-02-21T20:27:08.434Z,19.27
2024-02-21T20:29:36.965Z,17.35
2024-02-21T20:32:06.145Z,18.75
2024-02-21T20:34:34.834Z,15.90
2024-02-21T20:37:07.158Z,19.92
2024-02-21T20:39:37.998Z,16.73
2024-02-21T20:42:06.969Z,21.30
2024-02-21T20:44:35.657Z,16.63
2024-02-21T20:47:05.211Z,16.38
2024-02-21T20:49:33.823Z,20.83
2024-02-21T20:52:02.503Z,18.55
2024-02-21T20:54:32.887Z,16.58
2024-02-21T20:57:03.373Z,14.18
2024-02-21T20:59:31.822Z,19.52
2024-02-21T21:02:03.531Z,13.82
2024-02-21T21:04:33.487Z,15.00
2024-02-21T21:07:02.937Z,14.38
2024-02-21T21:09:31.509Z,33.28
2024-02-21T21:12:00.120Z,19.90
2024-02-21T21:14:30.117Z,20.17
2024-02-21T21:16:58.761Z,36.05
2024-02-21T21:19:29.157Z,15.45
2024-02-21T21:21:59.986Z,16.67
2024-02-21T21:24:28.662Z,15.05
2024-02-21T21:26:57.186Z,16.08
2024-02-21T21:29:25.671Z,16.75
2024-02-21T21:31:55.610Z,13.13
2024-02-21T21:34:24.311Z,18.05
2024-02-21T21:36:52.865Z,12.43
2024-02-21T21:39:21.990Z,15.20
2024-02-21T21:41:50.575Z,17.67
2024-02-21T21:44:19.187Z,11.40
2024-02-21T21:46:48.948Z,16.88
2024-02-21T21:49:18.973Z,16.60
2024-02-21T21:51:47.512Z,12.65
2024-02-21T21:54:16.054Z,13.73
2024-02-21T21:56:44.585Z,15.85
2024-02-21T21:59:13.354Z,15.40
2024-02-21T22:01:42.058Z,16.10
2024-02-21T22:04:11.375Z,13.13
2024-02-21T22:06:41.545Z,14.85
2024-02-21T22:09:10.610Z,18.80
2024-02-21T22:11:40.012Z,14.50
2024-02-21T22:14:09.882Z,13.75
2024-02-21T22:16:38.726Z,14.15
2024-02-21T22:19:07.345Z,17.35
2024-02-21T22:21:35.882Z,14.38
2024-02-21T22:24:06.247Z,17.08
2024-02-21T22:26:34.813Z,13.20
2024-02-21T22:29:03.474Z,13.10
2024-02-21T22:31:32.339Z,14.93
2024-02-21T22:34:01.483Z,11.48
2024-02-21T22:36:31.094Z,15.00
2024-02-21T22:39:02.347Z,14.07
2024-02-21T22:41:34.322Z,16.77
2024-02-21T22:44:04.568Z,13.45
2024-02-21T22:46:33.745Z,14.25
2024-02-21T22:49:03.180Z,18.98
2024-02-21T22:51:32.912Z,13.52
2024-02-21T22:54:02.045Z,22.45
2024-02-21T22:56:30.817Z,15.30
2024-02-21T22:59:00.818Z,16.98
2024-02-21T23:01:29.366Z,14.43
2024-02-21T23:03:58.423Z,14.60
2024-02-21T23:06:27.383Z,12.88
2024-02-21T23:08:56.050Z,14.98
2024-02-21T23:11:24.635Z,14.82
2024-02-21T23:13:53.191Z,16.10
2024-02-21T23:16:23.098Z,15.25
2024-02-21T23:18:52.641Z,15.43
2024-02-21T23:21:21.211Z,16.38
2024-02-21T23:23:49.799Z,12.85
2024-02-21T23:26:18.382Z,15.18
2024-02-21T23:28:46.907Z,13.18
2024-02-21T23:31:15.449Z,16.80
2024-02-21T23:33:45.717Z,12.73
2024-02-21T23:36:14.935Z,11.38
2024-02-21T23:38:44.223Z,13.40
2024-02-21T23:41:12.836Z,14.20
2024-02-21T23:43:43.156Z,13.75
2024-02-21T23:46:12.252Z,14.98
2024-02-21T23:48:41.473Z,16.13
2024-02-21T23:51:11.522Z,16.38
2024-02-21T23:53:39.982Z,14.77
2024-02-21T23:56:11.865Z,13.90
2024-02-21T23:58:40.508Z,14.80
